Time;durP1;ratioP1;P1;durP2;ratioP2;P2;SDS_P1;SDS_P2;PMS_P1;PMS_P2;Temp;Humidity;BMP_temperature;BMP_pressure;BME280_temperature;BME280_humidity;BME280_pressure;Samples;Min_cycle;Max_cycle;Signal;HPM_P1;HPM_P2
2021/09/19 00:01:01;;;;;;;5.43;5.00;;;;;;;13.45;82.54;99225.50;5076491;28;20229;-90
2021/09/19 00:03:42;;;;;;;5.83;5.30;;;;;;;13.42;82.55;99228.69;5075497;28;20229;-86
2021/09/19 00:06:15;;;;;;;5.60;5.10;;;;;;;13.25;83.31;99217.94;5076199;28;20312;-85
2021/09/19 00:08:46;;;;;;;5.13;4.73;;;;;;;13.23;83.02;99215.50;5076046;28;20223;-81
2021/09/19 00:11:24;;;;;;;5.40;5.00;;;;;;;13.17;83.11;99213.78;5075134;28;20229;-85
2021/09/19 00:14:04;;;;;;;6.50;5.20;;;;;;;13.12;83.22;99213.72;5077092;28;20299;-89
2021/09/19 00:16:59;;;;;;;6.00;5.50;;;;;;;13.10;83.53;99221.22;5076402;28;20228;-87
2021/09/19 00:19:46;;;;;;;5.20;4.80;;;;;;;13.03;83.36;99211.66;5079217;28;20308;-82
2021/09/19 00:22:53;;;;;;;5.60;5.10;;;;;;;13.02;83.34;99215.41;5086467;28;20308;-84
2021/09/19 00:25:56;;;;;;;5.43;5.03;;;;;;;12.90;83.33;99210.13;5088284;28;20311;-83
2021/09/19 00:29:31;;;;;;;5.23;4.83;;;;;;;12.83;84.02;99209.44;5091390;28;20225;-81
2021/09/19 00:32:23;;;;;;;5.03;4.70;;;;;;;12.75;84.05;99212.56;5090194;28;20221;-85
2021/09/19 00:35:05;;;;;;;5.50;5.00;;;;;;;12.73;84.28;99215.50;5049427;22;20666;-80
2021/09/19 00:38:14;;;;;;;5.40;4.90;;;;;;;12.71;84.37;99219.47;5017987;28;20579;-81
2021/09/19 00:41:39;;;;;;;5.40;5.00;;;;;;;12.64;83.73;99213.47;5039550;28;20261;-80
2021/09/19 00:45:09;;;;;;;5.13;4.63;;;;;;;12.63;84.38;99217.19;5050937;28;20219;-80
2021/09/19 00:48:49;;;;;;;5.13;4.73;;;;;;;12.50;84.72;99207.56;5022021;28;20237;-81
2021/09/19 00:52:21;;;;;;;5.30;4.80;;;;;;;12.53;84.84;99219.69;5057055;23;20241;-81
2021/09/19 00:55:01;;;;;;;5.23;4.77;;;;;;;12.52;84.99;99223.44;5035812;28;20230;-80
2021/09/19 00:57:48;;;;;;;5.43;5.03;;;;;;;12.52;85.07;99220.75;5052135;22;20238;-80
2021/09/19 01:01:00;;;;;;;5.80;5.30;;;;;;;12.46;84.57;99208.31;5048000;23;20226;-81
2021/09/19 01:04:01;;;;;;;5.50;5.10;;;;;;;12.37;85.15;99205.16;5149253;22;20236;-80
2021/09/19 01:07:18;;;;;;;6.40;5.90;;;;;;;12.44;85.06;99219.28;5070719;28;20220;-80
2021/09/19 01:10:33;;;;;;;5.90;5.50;;;;;;;12.41;85.43;99208.22;5072172;28;20192;-80
2021/09/19 01:14:09;;;;;;;6.17;5.67;;;;;;;12.44;85.40;99224.66;5070499;28;20248;-80
2021/09/19 01:16:55;;;;;;;6.40;5.87;;;;;;;12.39;85.25;99221.88;5054025;28;20241;-80
2021/09/19 01:20:24;;;;;;;6.00;5.60;;;;;;;12.39;85.48;99221.88;5068848;28;20221;-80
2021/09/19 01:23:35;;;;;;;6.47;5.87;;;;;;;12.39;85.04;99219.19;5074269;23;20225;-80
2021/09/19 01:26:48;;;;;;;6.70;6.10;;;;;;;12.27;85.42;99219.22;5071606;28;20193;-81
2021/09/19 01:30:10;;;;;;;6.43;5.83;;;;;;;12.24;85.00;99222.41;5071942;28;20193;-80
2021/09/19 01:33:21;;;;;;;7.27;6.50;;;;;;;12.19;85.07;99229.53;5069491;28;20313;-80
2021/09/19 01:36:18;;;;;;;6.93;6.40;;;;;;;12.06;85.43;99205.66;5071001;28;20225;-80
2021/09/19 01:40:00;;;;;;;7.20;6.60;;;;;;;12.07;85.10;99224.22;5070575;28;20231;-80
2021/09/19 01:43:21;;;;;;;6.90;6.40;;;;;;;11.94;85.60;99215.63;5070885;28;20209;-81
2021/09/19 01:46:16;;;;;;;7.00;6.40;;;;;;;11.96;85.75;99213.50;5074691;28;20522;-80
2021/09/19 01:49:15;;;;;;;7.37;6.77;;;;;;;12.00;85.66;99225.41;5082114;22;20221;-80
2021/09/19 01:52:25;;;;;;;7.23;6.63;;;;;;;12.02;85.66;99226.81;5031513;28;20238;-80
2021/09/19 01:55:55;;;;;;;8.07;7.27;;;;;;;12.03;86.00;99230.31;5019421;28;20258;-80
2021/09/19 01:59:06;;;;;;;7.47;6.30;;;;;;;12.00;85.81;99228.09;5056214;23;20251;-80
2021/09/19 02:02:37;;;;;;;7.40;6.70;;;;;;;11.95;85.87;99231.50;5061704;28;20240;-80
2021/09/19 02:06:04;;;;;;;7.20;6.60;;;;;;;11.82;85.73;99213.78;5017846;23;20526;-80
2021/09/19 02:09:10;;;;;;;6.83;6.30;;;;;;;11.79;86.01;99210.78;5075023;28;20185;-80
2021/09/19 02:12:04;;;;;;;6.97;6.27;;;;;;;11.80;85.75;99223.94;5072245;28;20228;-80
2021/09/19 02:14:58;;;;;;;6.87;6.23;;;;;;;11.78;85.88;99223.38;5075142;28;20182;-80
2021/09/19 02:17:53;;;;;;;7.40;6.80;;;;;;;11.75;85.89;99221.16;5065421;22;20232;-80
2021/09/19 02:20:45;;;;;;;6.80;6.30;;;;;;;11.65;85.20;99210.19;5032115;22;20225;-80
2021/09/19 02:23:33;;;;;;;6.97;6.30;;;;;;;11.63;85.68;99219.50;5168852;22;20416;-80
2021/09/19 02:26:58;;;;;;;7.23;6.43;;;;;;;11.63;85.74;99227.56;5073426;28;20271;-80
2021/09/19 02:30:20;;;;;;;7.07;6.47;;;;;;;11.61;86.01;99224.31;5076488;28;20202;-80
2021/09/19 02:33:21;;;;;;;8.00;7.30;;;;;;;11.62;86.20;99207.97;5073552;28;20233;-80
2021/09/19 02:36:15;;;;;;;8.97;8.03;;;;;;;11.80;86.94;99218.56;5074355;28;20213;-79
2021/09/19 02:38:55;;;;;;;7.73;7.10;;;;;;;11.89;86.67;99233.28;5074235;28;20233;-80
2021/09/19 02:41:59;;;;;;;7.20;6.60;;;;;;;11.83;86.41;99215.44;5078256;22;20264;-80
2021/09/19 02:45:12;;;;;;;8.63;7.77;;;;;;;11.85;86.28;99213.31;5075516;28;20281;-80
2021/09/19 02:48:03;;;;;;;8.87;8.03;;;;;;;11.89;86.54;99210.97;5074790;22;20217;-80
2021/09/19 02:50:47;;;;;;;8.20;7.60;;;;;;;11.91;86.23;99204.31;5067627;28;20255;-80
2021/09/19 02:53:23;;;;;;;8.10;7.43;;;;;;;11.95;86.45;99211.88;5068787;28;20268;-80
2021/09/19 02:56:19;;;;;;;8.00;7.40;;;;;;;11.97;86.25;99215.16;5066781;28;20320;-80
2021/09/19 02:59:04;;;;;;;8.53;7.73;;;;;;;11.91;86.34;99206.19;5068831;28;20229;-80
2021/09/19 03:01:47;;;;;;;8.07;7.40;;;;;;;11.89;86.01;99213.66;5069193;28;20218;-80
2021/09/19 03:04:29;;;;;;;7.83;7.23;;;;;;;11.85;85.59;99212.53;5073723;22;20222;-80
2021/09/19 03:07:30;;;;;;;8.30;7.57;;;;;;;11.80;85.70;99202.47;5068743;28;20236;-80
2021/09/19 03:10:18;;;;;;;8.63;7.93;;;;;;;11.88;86.12;99206.66;5066452;28;20225;-80
2021/09/19 03:13:04;;;;;;;8.43;7.73;;;;;;;11.83;85.83;99195.81;5069019;28;20225;-81
2021/09/19 03:15:43;;;;;;;8.47;7.70;;;;;;;12.02;85.75;99218.75;5066559;28;20720;-80
2021/09/19 03:18:15;;;;;;;8.27;7.47;;;;;;;12.00;85.69;99220.03;5067511;28;20189;-81
2021/09/19 03:20:49;;;;;;;8.33;7.73;;;;;;;11.99;85.57;99218.44;5067247;28;20213;-80
2021/09/19 03:23:29;;;;;;;7.53;6.83;;;;;;;11.91;85.24;99220.41;5065292;28;20717;-81
2021/09/19 03:26:17;;;;;;;7.83;7.17;;;;;;;11.80;85.37;99212.41;5066082;28;20676;-80
2021/09/19 03:28:55;;;;;;;8.10;7.40;;;;;;;11.80;85.58;99215.88;5064996;28;20233;-81
2021/09/19 03:31:30;;;;;;;7.40;6.80;;;;;;;11.71;85.63;99209.22;5065985;28;20659;-81
2021/09/19 03:34:10;;;;;;;7.77;7.17;;;;;;;11.68;85.47;99223.13;5064881;28;20271;-81
2021/09/19 03:37:05;;;;;;;7.53;6.93;;;;;;;11.65;85.66;99225.47;5064875;28;20237;-80
2021/09/19 03:39:49;;;;;;;7.87;7.27;;;;;;;11.58;85.99;99216.72;5051471;28;20307;-80
2021/09/19 03:42:30;;;;;;;6.90;6.40;;;;;;;11.59;85.87;99221.03;5065748;28;20580;-80
2021/09/19 03:45:09;;;;;;;7.70;6.90;;;;;;;11.55;86.17;99230.63;5064431;28;20651;-80
2021/09/19 03:47:51;;;;;;;7.83;7.07;;;;;;;11.44;85.90;99218.84;5064665;28;20630;-80
2021/09/19 03:50:45;;;;;;;6.93;6.33;;;;;;;11.39;85.88;99222.22;5065919;28;20216;-80
2021/09/19 03:53:30;;;;;;;7.40;6.70;;;;;;;11.28;85.99;99209.66;5065887;28;20240;-81
2021/09/19 03:56:15;;;;;;;7.33;6.73;;;;;;;11.40;86.16;99225.72;5066665;28;20228;-81
2021/09/19 03:58:57;;;;;;;7.77;7.10;;;;;;;11.41;85.93;99222.81;5065331;28;20332;-80
2021/09/19 04:01:36;;;;;;;7.60;6.90;;;;;;;11.44;86.22;99216.97;5066327;28;20223;-80
2021/09/19 04:04:11;;;;;;;8.17;7.37;;;;;;;11.56;86.31;99237.63;5063433;28;20244;-80
2021/09/19 04:06:49;;;;;;;8.73;7.83;;;;;;;11.57;86.04;99226.63;5064745;28;20229;-80
2021/09/19 04:09:44;;;;;;;8.00;7.33;;;;;;;11.67;86.35;99232.22;5069741;28;20225;-81
2021/09/19 04:12:35;;;;;;;8.17;7.47;;;;;;;11.68;86.82;99230.34;5069555;28;20222;-80
2021/09/19 04:15:24;;;;;;;8.90;8.07;;;;;;;11.77;86.94;99242.38;5067842;28;20237;-80
2021/09/19 04:18:23;;;;;;;8.20;7.50;;;;;;;11.86;86.70;99231.03;5069118;28;20225;-81
2021/09/19 04:21:15;;;;;;;8.10;7.40;;;;;;;11.94;87.18;99234.44;5067581;28;20252;-80
2021/09/19 04:23:54;;;;;;;8.27;7.57;;;;;;;12.05;87.09;99238.94;5067782;28;20233;-80
2021/09/19 04:26:52;;;;;;;7.90;7.20;;;;;;;12.08;87.08;99225.03;5067181;28;20229;-80
2021/09/19 04:29:51;;;;;;;8.27;7.57;;;;;;;12.10;86.97;99223.75;5068733;28;20224;-80
2021/09/19 04:32:41;;;;;;;7.60;7.00;;;;;;;12.08;86.71;99223.19;5068808;28;20256;-80
2021/09/19 04:36:02;;;;;;;8.20;7.50;;;;;;;12.07;86.94;99208.13;5074883;22;20645;-80
2021/09/19 04:38:50;;;;;;;8.60;7.80;;;;;;;12.09;86.66;99211.34;5067379;28;20269;-80
2021/09/19 04:41:41;;;;;;;8.40;7.60;;;;;;;12.07;87.16;99215.34;5068845;28;20220;-80
2021/09/19 04:44:33;;;;;;;8.43;7.70;;;;;;;12.03;86.80;99212.34;5069393;28;20237;-80
2021/09/19 04:47:32;;;;;;;8.80;8.00;;;;;;;12.03;86.75;99208.84;5073913;22;20229;-80
2021/09/19 04:50:24;;;;;;;8.33;7.60;;;;;;;12.00;86.68;99220.03;5058376;28;20236;-80
2021/09/19 04:53:17;;;;;;;8.33;7.60;;;;;;;12.01;86.93;99218.97;5077305;28;20233;-81
2021/09/19 04:55:50;;;;;;;8.17;7.47;;;;;;;12.00;86.87;99218.16;5066585;28;20647;-81
2021/09/19 04:58:23;;;;;;;8.20;7.50;;;;;;;11.95;86.98;99207.31;5066604;28;20213;-80
2021/09/19 05:01:13;;;;;;;9.00;8.20;;;;;;;12.03;86.74;99219.56;5066521;28;20231;-80
2021/09/19 05:03:59;;;;;;;8.90;8.03;;;;;;;12.02;86.46;99224.13;5065949;28;20216;-80
2021/09/19 05:06:47;;;;;;;8.77;7.97;;;;;;;12.05;86.56;99217.44;5066460;28;20221;-80
2021/09/19 05:09:26;;;;;;;8.90;8.20;;;;;;;12.01;86.38;99208.25;5065960;28;20233;-80
2021/09/19 05:12:20;;;;;;;9.37;8.57;;;;;;;12.11;86.24;99217.31;5064293;28;20218;-80
2021/09/19 05:14:59;;;;;;;8.77;8.07;;;;;;;12.13;86.11;99219.78;5066889;28;20252;-80
2021/09/19 05:17:40;;;;;;;9.30;8.50;;;;;;;12.16;85.92;99217.41;5066222;28;20518;-81
2021/09/19 05:20:34;;;;;;;9.40;8.60;;;;;;;12.29;85.73;99227.06;5031874;28;20229;-80
2021/09/19 05:23:15;;;;;;;9.10;8.20;;;;;;;12.29;86.04;99230.56;5065752;28;20761;-80
2021/09/19 05:25:58;;;;;;;8.90;8.10;;;;;;;12.35;85.67;99234.97;5065083;28;20221;-80
2021/09/19 05:28:51;;;;;;;8.73;8.03;;;;;;;12.46;85.35;99221.75;5064654;28;20229;-80
2021/09/19 05:31:38;;;;;;;8.93;8.13;;;;;;;12.61;84.86;99236.25;5066033;28;20279;-80
2021/09/19 05:34:31;;;;;;;9.47;8.67;;;;;;;12.84;84.59;99237.97;5066326;28;20230;-80
2021/09/19 05:37:25;;;;;;;9.23;8.47;;;;;;;12.99;84.01;99234.72;5065894;28;20202;-81
2021/09/19 05:40:19;;;;;;;9.23;8.33;;;;;;;13.06;83.49;99233.53;5056879;28;20271;-81
2021/09/19 05:43:04;;;;;;;8.80;8.10;;;;;;;13.27;83.05;99247.28;5055532;28;20221;-80
2021/09/19 05:45:47;;;;;;;9.27;8.50;;;;;;;13.34;82.95;99242.56;5065557;28;20248;-81
2021/09/19 05:48:44;;;;;;;8.70;8.10;;;;;;;13.63;82.01;99247.56;5065450;28;20692;-80
2021/09/19 05:51:21;;;;;;;8.20;7.60;;;;;;;13.65;81.88;99250.81;5066354;28;20300;-81
2021/09/19 05:53:58;;;;;;;9.87;9.00;;;;;;;13.85;81.59;99242.22;5064917;28;20225;-80
2021/09/19 05:57:10;;;;;;;8.83;8.13;;;;;;;14.02;80.84;99237.56;5065564;28;20268;-79
2021/09/19 06:00:12;;;;;;;9.67;8.87;;;;;;;14.21;80.34;99240.75;5061866;28;20292;-83
2021/09/19 06:02:49;;;;;;;9.37;8.57;;;;;;;14.39;79.43;99228.84;5063638;28;20533;-79
2021/09/19 06:05:21;;;;;;;9.50;8.70;;;;;;;14.48;78.62;99227.31;5059154;28;20239;-82
2021/09/19 06:07:52;;;;;;;9.07;8.37;;;;;;;14.70;78.16;99238.03;5038304;28;20510;-87
2021/09/19 06:10:23;;;;;;;8.50;7.80;;;;;;;14.84;77.41;99231.16;5036316;28;20239;-84
2021/09/19 06:12:56;;;;;;;8.40;7.80;;;;;;;15.03;76.88;99223.47;5054564;28;20223;-85
2021/09/19 06:15:28;;;;;;;7.83;7.23;;;;;;;15.17;76.61;99219.25;5037785;28;20227;-84
2021/09/19 06:17:57;;;;;;;8.07;7.47;;;;;;;15.39;76.40;99231.59;5036994;28;20511;-88
2021/09/19 06:20:30;;;;;;;8.47;7.67;;;;;;;15.41;75.48;99217.81;5037529;28;20251;-84
2021/09/19 06:23:03;;;;;;;7.77;7.03;;;;;;;15.52;74.74;99214.13;5021452;28;20231;-85
2021/09/19 06:25:38;;;;;;;8.47;7.77;;;;;;;15.68;74.40;99215.84;5053407;28;20654;-81
2021/09/19 06:28:12;;;;;;;8.10;7.43;;;;;;;15.82;73.80;99225.09;5053024;28;20260;-82
2021/09/19 06:30:43;;;;;;;8.40;7.70;;;;;;;15.96;73.54;99222.72;5055325;28;20232;-88
2021/09/19 06:33:14;;;;;;;8.63;7.87;;;;;;;16.06;72.93;99225.44;5040934;28;20242;-86
2021/09/19 06:35:49;;;;;;;7.50;6.87;;;;;;;16.25;72.29;99231.19;5041432;28;20689;-90
2021/09/19 06:38:22;;;;;;;7.67;7.07;;;;;;;16.44;71.70;99224.22;5040828;28;20638;-89
2021/09/19 06:40:58;;;;;;;8.23;7.53;;;;;;;16.53;71.31;99229.91;5056602;28;20572;-84
2021/09/19 06:43:38;;;;;;;7.30;6.80;;;;;;;16.63;69.35;99213.72;5056877;28;20651;-90
2021/09/19 06:46:12;;;;;;;6.97;6.40;;;;;;;16.77;68.85;99225.66;5040694;28;20315;-90
2021/09/19 06:48:44;;;;;;;7.17;6.57;;;;;;;16.81;67.99;99217.78;5025273;28;20218;-88
2021/09/19 06:51:18;;;;;;;6.60;6.10;;;;;;;16.97;67.48;99214.03;5056616;28;20240;-91
2021/09/19 06:53:48;;;;;;;6.73;6.20;;;;;;;17.17;67.28;99222.94;5039709;28;20222;-87
2021/09/19 06:56:21;;;;;;;6.27;5.77;;;;;;;17.32;66.38;99224.00;5056125;28;20652;-85
2021/09/19 06:58:57;;;;;;;7.53;6.83;;;;;;;17.29;66.09;99222.66;5056499;28;20236;-89
2021/09/19 07:01:28;;;;;;;6.20;5.70;;;;;;;17.65;65.86;99230.72;5040271;28;20236;-83
2021/09/19 07:03:59;;;;;;;5.63;5.23;;;;;;;17.76;65.61;99235.84;5038561;28;20232;-91
2021/09/19 07:06:32;;;;;;;6.10;5.60;;;;;;;17.81;64.62;99235.84;5040023;28;20226;-85
2021/09/19 07:09:05;;;;;;;5.77;5.27;;;;;;;17.94;63.88;99237.16;5056074;28;20275;-92
2021/09/19 07:11:34;;;;;;;5.70;5.30;;;;;;;18.13;63.35;99232.72;5040202;28;20523;-83
2021/09/19 07:14:07;;;;;;;5.53;5.13;;;;;;;18.26;62.31;99234.81;5039474;28;20332;-91
2021/09/19 07:16:37;;;;;;;5.20;4.90;;;;;;;18.06;63.35;99228.72;5039997;28;20229;-84
2021/09/19 07:19:11;;;;;;;5.27;4.87;;;;;;;18.17;62.59;99222.94;5039502;28;20225;-90
2021/09/19 07:21:40;;;;;;;4.83;4.33;;;;;;;18.22;62.15;99219.41;5022768;28;20221;-88
2021/09/19 07:24:09;;;;;;;4.83;4.37;;;;;;;18.36;61.86;99236.69;5053139;28;20233;-93
2021/09/19 07:26:40;;;;;;;4.33;4.03;;;;;;;18.17;61.76;99235.69;5039017;28;20242;-88
2021/09/19 07:29:10;;;;;;;4.30;4.00;;;;;;;18.21;61.80;99234.84;5039696;28;20276;-84
2021/09/19 07:31:43;;;;;;;4.10;3.80;;;;;;;18.27;62.28;99236.47;5023170;28;20252;-90
2021/09/19 07:34:15;;;;;;;4.07;3.77;;;;;;;18.07;61.60;99241.16;5050819;28;20228;-88
2021/09/19 07:36:48;;;;;;;3.50;3.30;;;;;;;18.30;60.80;99240.50;5020558;28;20308;-88
2021/09/19 07:39:22;;;;;;;3.60;3.30;;;;;;;18.25;60.78;99264.94;5020405;28;20232;-88
2021/09/19 07:41:53;;;;;;;3.47;3.17;;;;;;;18.15;60.49;99257.66;5032291;28;20660;-88
2021/09/19 07:44:22;;;;;;;3.67;3.40;;;;;;;18.18;61.01;99259.00;5038679;28;20256;-84
2021/09/19 07:46:53;;;;;;;3.67;3.07;;;;;;;18.06;60.40;99250.41;5038831;28;20233;-92
2021/09/19 07:49:22;;;;;;;3.00;2.80;;;;;;;18.24;59.01;99253.28;5039116;28;20241;-92
2021/09/19 07:51:56;;;;;;;3.50;2.57;;;;;;;18.42;59.02;99255.38;5039245;28;20232;-86
2021/09/19 07:54:26;;;;;;;3.00;2.70;;;;;;;18.64;59.36;99263.13;5054787;28;20261;-83
2021/09/19 07:56:55;;;;;;;2.93;2.73;;;;;;;18.88;58.64;99264.06;5038703;28;20229;-82
2021/09/19 07:59:24;;;;;;;3.10;2.90;;;;;;;19.24;56.48;99256.44;5038636;28;20225;-82
2021/09/19 08:01:52;;;;;;;3.00;2.77;;;;;;;19.53;54.80;99264.63;5038555;28;20302;-87
2021/09/19 08:04:23;;;;;;;3.87;3.40;;;;;;;19.47;54.71;99276.63;5038240;28;20279;-84
2021/09/19 08:06:55;;;;;;;3.33;3.13;;;;;;;19.89;55.32;99277.81;5022538;28;20225;-90
2021/09/19 08:09:25;;;;;;;3.07;2.87;;;;;;;20.10;53.77;99268.34;5054610;28;20229;-86
2021/09/19 08:11:54;;;;;;;4.27;3.37;;;;;;;20.16;53.55;99278.03;5044722;28;20711;-84
2021/09/19 08:14:25;;;;;;;3.77;3.47;;;;;;;20.12;53.83;99280.53;5003312;28;20237;-84
2021/09/19 08:16:55;;;;;;;3.00;2.80;;;;;;;19.87;53.04;99272.69;5017434;28;20234;-85
2021/09/19 08:19:24;;;;;;;2.90;2.70;;;;;;;20.25;52.78;99278.25;5000478;28;20238;-85
2021/09/19 08:21:59;;;;;;;3.00;2.67;;;;;;;20.16;52.22;99283.47;5030934;28;20232;-85
2021/09/19 08:24:34;;;;;;;2.50;2.30;;;;;;;19.83;51.79;99277.06;5001071;28;20638;-86
2021/09/19 08:27:11;;;;;;;1.97;1.87;;;;;;;20.29;49.28;99282.81;5034408;28;20648;-85
2021/09/19 08:29:44;;;;;;;2.50;2.30;;;;;;;20.09;50.95;99278.41;5034266;28;20703;-82
2021/09/19 08:32:17;;;;;;;2.50;2.30;;;;;;;20.22;50.82;99268.72;5017739;28;20233;-85
2021/09/19 08:34:53;;;;;;;2.70;2.50;;;;;;;20.21;51.17;99276.06;5019075;28;20241;-85
2021/09/19 08:37:27;;;;;;;2.70;2.50;;;;;;;20.44;50.83;99270.91;5002792;28;20237;-84
2021/09/19 08:39:56;;;;;;;2.53;2.33;;;;;;;19.72;52.00;99265.50;5034267;28;20650;-87
2021/09/19 08:42:29;;;;;;;2.60;2.40;;;;;;;19.61;53.18;99258.56;5002238;28;20222;-90
2021/09/19 08:45:06;;;;;;;3.10;2.90;;;;;;;19.80;52.94;99266.78;5018826;28;20233;-89
2021/09/19 08:47:38;;;;;;;2.87;2.67;;;;;;;19.69;53.85;99276.16;5034165;28;20230;-85
2021/09/19 08:50:12;;;;;;;2.97;2.77;;;;;;;20.34;52.66;99282.78;5034144;28;20511;-84
2021/09/19 08:52:45;;;;;;;3.20;3.00;;;;;;;19.90;52.46;99277.53;5018235;28;20292;-87
2021/09/19 08:55:26;;;;;;;2.90;2.70;;;;;;;19.56;53.33;99276.81;5033992;28;20226;-89
2021/09/19 08:57:58;;;;;;;2.70;2.50;;;;;;;20.52;52.11;99275.72;5035486;28;20225;-83
2021/09/19 09:00:39;;;;;;;2.90;2.60;;;;;;;20.91;49.94;99280.84;5018301;28;20700;-87
2021/09/19 09:03:17;;;;;;;2.90;2.70;;;;;;;20.80;51.11;99288.41;5018399;28;20226;-82
2021/09/19 09:06:02;;;;;;;3.00;2.80;;;;;;;20.71;51.05;99271.09;5019038;28;20230;-84
2021/09/19 09:08:42;;;;;;;2.20;2.10;;;;;;;21.00;49.77;99274.44;5002677;28;20509;-87
2021/09/19 09:11:17;;;;;;;2.20;2.10;;;;;;;21.19;49.75;99274.44;5034510;28;20232;-87
2021/09/19 09:13:57;;;;;;;2.80;2.40;;;;;;;21.53;49.06;99264.06;5018329;28;20235;-86
2021/09/19 09:16:31;;;;;;;1.93;1.67;;;;;;;20.86;47.96;99270.03;5018869;28;20226;-87
2021/09/19 09:19:10;;;;;;;1.50;1.40;;;;;;;20.47;48.09;99273.06;5018654;28;20248;-86
2021/09/19 09:21:43;;;;;;;1.60;1.50;;;;;;;19.54;51.29;99270.88;5033721;28;20229;-83
2021/09/19 09:24:15;;;;;;;1.60;1.50;;;;;;;18.73;52.62;99266.88;5033595;28;20302;-90
2021/09/19 09:26:51;;;;;;;1.97;1.60;;;;;;;19.48;52.30;99267.38;5018692;28;20234;-88
2021/09/19 09:29:21;;;;;;;1.60;1.50;;;;;;;19.96;50.80;99262.00;5018300;28;20229;-85
2021/09/19 09:31:53;;;;;;;1.50;1.40;;;;;;;20.11;50.08;99261.81;5017704;28;20650;-83
2021/09/19 09:34:28;;;;;;;1.70;1.60;;;;;;;19.51;51.84;99258.66;5002168;28;20230;-89
2021/09/19 09:37:00;;;;;;;1.80;1.70;;;;;;;19.91;50.43;99260.16;5017773;28;20234;-86
2021/09/19 09:39:36;;;;;;;1.50;1.40;;;;;;;20.45;49.37;99259.75;5018362;28;20230;-84
2021/09/19 09:42:15;;;;;;;2.03;1.93;;;;;;;20.20;48.94;99260.06;5033729;28;20226;-86
2021/09/19 09:44:58;;;;;;;2.10;1.90;;;;;;;20.54;48.99;99257.19;5033746;28;20230;-86
2021/09/19 09:47:39;;;;;;;1.90;1.80;;;;;;;20.81;48.95;99254.59;5017967;28;20234;-89
2021/09/19 09:50:12;;;;;;;2.20;2.10;;;;;;;20.03;49.94;99246.13;5017831;28;20233;-90
2021/09/19 09:52:44;;;;;;;2.30;2.10;;;;;;;20.00;50.83;99242.09;5002053;28;20367;-88
2021/09/19 09:55:17;;;;;;;2.27;2.10;;;;;;;19.51;51.86;99234.19;5034063;28;20218;-85
2021/09/19 09:57:56;;;;;;;2.00;1.90;;;;;;;19.73;51.14;99237.25;5002181;28;20225;-88
2021/09/19 10:00:31;;;;;;;3.20;2.13;;;;;;;19.29;52.00;99228.41;5034487;28;20246;-84
2021/09/19 10:03:06;;;;;;;2.17;2.07;;;;;;;19.47;50.93;99235.88;5017808;28;20736;-84
2021/09/19 10:05:40;;;;;;;2.17;1.87;;;;;;;20.24;49.58;99223.03;5019603;28;20229;-88
2021/09/19 10:08:14;;;;;;;1.93;1.83;;;;;;;20.45;50.34;99237.97;5020845;28;20226;-86
2021/09/19 10:10:50;;;;;;;2.13;2.00;;;;;;;20.39;49.18;99232.94;5022156;28;20233;-87
2021/09/19 10:13:25;;;;;;;2.20;2.10;;;;;;;19.58;50.76;99229.25;5037335;28;20236;-86
2021/09/19 10:15:58;;;;;;;2.27;2.10;;;;;;;19.99;50.70;99226.06;5045610;28;20220;-87
2021/09/19 10:18:28;;;;;;;2.23;2.13;;;;;;;20.62;49.11;99229.31;5025193;28;20229;-88
2021/09/19 10:21:06;;;;;;;1.90;1.80;;;;;;;20.51;49.09;99220.50;5042188;28;20253;-87
2021/09/19 10:23:41;;;;;;;2.20;2.00;;;;;;;20.85;48.86;99217.53;5040464;28;20641;-85
2021/09/19 10:26:25;;;;;;;2.37;2.00;;;;;;;20.84;48.94;99224.06;5040973;28;20237;-87
2021/09/19 10:29:00;;;;;;;2.80;2.60;;;;;;;21.03;50.60;99216.69;5040933;28;20264;-85
2021/09/19 10:31:43;;;;;;;2.40;2.23;;;;;;;20.91;49.69;99220.97;5041642;28;20286;-84
2021/09/19 10:34:34;;;;;;;2.50;2.30;;;;;;;21.01;49.97;99221.59;5056711;28;20225;-83
2021/09/19 10:37:12;;;;;;;2.20;2.10;;;;;;;20.34;50.26;99211.22;5041689;28;20728;-89
2021/09/19 10:39:45;;;;;;;2.63;2.43;;;;;;;19.98;51.74;99205.41;5056994;28;20239;-86
2021/09/19 10:42:30;;;;;;;2.80;2.60;;;;;;;19.51;52.75;99219.78;5056215;28;20229;-90
2021/09/19 10:45:13;;;;;;;2.60;2.40;;;;;;;19.64;52.64;99213.69;5057060;28;20236;-84
2021/09/19 10:48:04;;;;;;;2.20;2.00;;;;;;;19.91;52.61;99210.41;5056721;28;20537;-86
2021/09/19 10:50:36;;;;;;;2.10;2.00;;;;;;;20.44;52.13;99213.78;5040964;28;20233;-88
2021/09/19 10:53:30;;;;;;;2.00;1.90;;;;;;;20.77;49.03;99214.66;5040282;28;20228;-86
2021/09/19 10:56:13;;;;;;;2.13;2.03;;;;;;;20.75;48.24;99208.72;5025089;28;20225;-84
2021/09/19 10:58:48;;;;;;;2.00;1.90;;;;;;;21.43;46.88;99207.00;5041119;28;20241;-88
2021/09/19 11:01:26;;;;;;;1.67;1.53;;;;;;;20.84;48.49;99209.66;5040867;28;20234;-85
2021/09/19 11:04:02;;;;;;;1.47;1.40;;;;;;;20.94;46.71;99206.78;5040328;28;20225;-88
2021/09/19 11:06:34;;;;;;;1.70;1.60;;;;;;;21.61;45.54;99207.22;5055805;28;20229;-84
2021/09/19 11:09:27;;;;;;;1.53;1.43;;;;;;;21.38;45.33;99198.91;5057240;28;20256;-87
2021/09/19 11:12:11;;;;;;;1.00;0.90;;;;;;;20.74;46.47;99198.91;5053269;28;20218;-88
2021/09/19 11:15:06;;;;;;;2.07;1.20;;;;;;;20.59;46.15;99194.50;5056234;28;20217;-84
2021/09/19 11:17:45;;;;;;;1.40;1.30;;;;;;;20.68;45.83;99190.00;5054911;28;20229;-85
2021/09/19 11:20:18;;;;;;;1.20;1.10;;;;;;;21.29;44.95;99183.56;5023258;28;20226;-89
2021/09/19 11:22:49;;;;;;;1.47;1.37;;;;;;;21.07;47.41;99182.28;5055989;28;20441;-87
2021/09/19 11:25:21;;;;;;;1.07;1.07;;;;;;;21.29;45.63;99178.13;5055323;28;20222;-86
2021/09/19 11:27:55;;;;;;;1.30;1.20;;;;;;;19.87;47.62;99161.25;5040049;28;20311;-86
2021/09/19 11:30:30;;;;;;;1.20;1.10;;;;;;;19.99;49.62;99171.69;5023321;28;20236;-89
2021/09/19 11:33:13;;;;;;;1.57;1.07;;;;;;;20.04;48.66;99158.00;5056642;28;20709;-86
2021/09/19 11:35:45;;;;;;;0.80;0.80;;;;;;;21.20;46.00;99166.31;5055367;28;20308;-83
2021/09/19 11:38:18;;;;;;;1.00;1.00;;;;;;;20.96;44.88;99153.63;5022568;28;20234;-90
2021/09/19 11:40:59;;;;;;;0.90;0.90;;;;;;;20.77;45.92;99165.66;5055213;28;20231;-88
2021/09/19 11:43:33;;;;;;;0.80;0.80;;;;;;;20.92;44.56;99158.03;5055317;28;20667;-83
2021/09/19 11:46:15;;;;;;;1.30;0.90;;;;;;;21.21;44.05;99160.56;5039708;28;20229;-84
2021/09/19 11:48:48;;;;;;;1.10;1.00;;;;;;;21.63;43.24;99154.03;5039474;28;20222;-86
2021/09/19 11:51:20;;;;;;;0.80;0.80;;;;;;;21.55;43.79;99153.94;5039191;28;20312;-86
2021/09/19 11:53:56;;;;;;;0.80;0.80;;;;;;;21.73;43.78;99153.03;5022520;28;20269;-86
2021/09/19 11:56:27;;;;;;;1.10;1.00;;;;;;;21.63;43.26;99162.22;5038391;28;20233;-86
2021/09/19 11:58:57;;;;;;;1.10;1.00;;;;;;;21.78;43.73;99155.66;5038758;28;20234;-85
2021/09/19 12:01:28;;;;;;;1.00;1.00;;;;;;;21.20;45.14;99163.56;5055037;28;20288;-85
2021/09/19 12:04:04;;;;;;;1.30;1.20;;;;;;;21.70;44.87;99161.78;5022379;28;20230;-86
2021/09/19 12:06:34;;;;;;;1.20;1.10;;;;;;;21.34;46.52;99169.84;5038344;28;20253;-82
2021/09/19 12:09:02;;;;;;;1.03;1.00;;;;;;;21.66;45.99;99171.69;5037981;28;20242;-86
2021/09/19 12:11:39;;;;;;;0.80;0.80;;;;;;;21.33;45.85;99163.59;5038760;28;20285;-86
2021/09/19 12:14:17;;;;;;;0.83;0.80;;;;;;;21.56;46.38;99164.50;5054163;28;20218;-85
2021/09/19 12:17:04;;;;;;;0.70;0.70;;;;;;;20.32;47.48;99161.72;5055020;28;20317;-87
2021/09/19 12:19:36;;;;;;;2.70;0.90;;;;;;;19.85;49.42;99170.78;5016072;28;20529;-87
2021/09/19 12:22:14;;;;;;;1.37;0.90;;;;;;;19.66;50.20;99160.66;5018108;28;20243;-82
2021/09/19 12:24:42;;;;;;;0.90;0.90;;;;;;;20.15;49.67;99157.59;5034548;28;20333;-89
2021/09/19 12:27:24;;;;;;;0.70;0.70;;;;;;;20.15;48.52;99167.66;5034506;28;20528;-87
2021/09/19 12:29:58;;;;;;;0.80;0.80;;;;;;;19.72;49.83;99161.41;5034530;28;20253;-85
2021/09/19 12:32:42;;;;;;;0.73;0.73;;;;;;;20.13;49.46;99157.06;5050521;28;20321;-85
2021/09/19 12:35:17;;;;;;;0.90;0.60;;;;;;;20.71;48.46;99156.78;5034445;28;20226;-82
2021/09/19 12:37:48;;;;;;;1.23;0.80;;;;;;;20.77;47.90;99147.41;5034554;28;20508;-86
2021/09/19 12:40:20;;;;;;;0.70;0.70;;;;;;;20.89;47.21;99147.75;5034072;28;20604;-84
2021/09/19 12:42:51;;;;;;;0.70;0.70;;;;;;;21.49;46.57;99154.03;5017858;28;20672;-84
2021/09/19 12:45:24;;;;;;;2.60;0.80;;;;;;;20.68;47.21;99154.63;5034464;28;20231;-84
2021/09/19 12:47:56;;;;;;;0.70;0.70;;;;;;;20.90;46.95;99151.28;5034328;28;20243;-86
2021/09/19 12:50:26;;;;;;;1.23;0.83;;;;;;;20.77;46.68;99146.59;5033860;28;20246;-87